Time;durP1;ratioP1;P1;durP2;ratioP2;P2;SDS_P1;SDS_P2;PMS_P1;PMS_P2;Temp;Humidity;BMP_temperature;BMP_pressure;BME280_temperature;BME280_humidity;BME280_pressure;Samples;Min_cycle;Max_cycle;Signal;HPM_P1;HPM_P2
2022/09/08 00:00:10;;;;;;;17.10;15.27;;;14.40;99.90;;;;;;5059564;28;20127;-61
2022/09/08 00:02:36;;;;;;;33.08;21.73;;;14.40;99.90;;;;;;5057191;28;20052;-61
2022/09/08 00:05:03;;;;;;;24.00;18.45;;;14.20;99.90;;;;;;5049710;28;20044;-62
2022/09/08 00:07:31;;;;;;;19.45;16.58;;;14.40;99.90;;;;;;5060302;28;20497;-61
2022/09/08 00:09:56;;;;;;;28.83;19.67;;;14.30;99.90;;;;;;5071506;28;20423;-61
2022/09/08 00:12:24;;;;;;;24.05;17.88;;;14.20;99.90;;;;;;5054661;28;20041;-62
2022/09/08 00:14:50;;;;;;;23.02;19.50;;;14.10;99.90;;;;;;5059799;28;20036;-61
2022/09/08 00:17:16;;;;;;;24.48;18.75;;;14.20;99.90;;;;;;5062121;28;20048;-62
2022/09/08 00:19:41;;;;;;;25.30;19.75;;;14.30;99.90;;;;;;5059891;28;20049;-62
2022/09/08 00:22:07;;;;;;;25.65;19.50;;;14.20;99.90;;;;;;5062275;28;20040;-62
2022/09/08 00:24:33;;;;;;;22.65;17.48;;;14.10;99.90;;;;;;5059857;28;20040;-61
2022/09/08 00:26:58;;;;;;;22.60;17.25;;;14.20;99.90;;;;;;5064913;28;20392;-61
2022/09/08 00:29:24;;;;;;;23.65;17.90;;;14.10;99.90;;;;;;5029850;28;20045;-61
2022/09/08 00:31:49;;;;;;;23.05;17.90;;;14.20;99.90;;;;;;5037902;28;20033;-61
2022/09/08 00:34:15;;;;;;;22.13;18.50;;;14.00;99.90;;;;;;5056496;28;20044;-62
2022/09/08 00:36:41;;;;;;;23.58;17.77;;;13.90;99.90;;;;;;5060421;28;20038;-61
2022/09/08 00:39:06;;;;;;;21.25;17.67;;;14.00;99.90;;;;;;5065680;28;20051;-61
2022/09/08 00:41:32;;;;;;;25.15;19.02;;;14.00;99.90;;;;;;5066256;28;20033;-61
2022/09/08 00:43:59;;;;;;;29.58;21.95;;;13.90;99.90;;;;;;5048313;28;20039;-62
2022/09/08 00:46:28;;;;;;;27.65;20.83;;;13.80;99.90;;;;;;5059435;28;20522;-61
2022/09/08 00:49:05;;;;;;;29.77;21.70;;;13.90;99.90;;;;;;5065213;28;20045;-61
2022/09/08 00:51:31;;;;;;;22.45;17.83;;;14.00;99.90;;;;;;5054589;28;20075;-62
2022/09/08 00:53:58;;;;;;;23.83;18.80;;;13.90;99.90;;;;;;5063020;28;20036;-61
2022/09/08 00:56:26;;;;;;;21.80;17.77;;;13.90;99.90;;;;;;5036659;28;20431;-61
2022/09/08 00:58:53;;;;;;;25.58;18.50;;;14.00;99.90;;;;;;5067846;28;20029;-61
2022/09/08 01:01:19;;;;;;;27.40;20.45;;;13.80;99.90;;;;;;5065408;28;20032;-61
2022/09/08 01:03:45;;;;;;;28.40;20.83;;;13.90;99.90;;;;;;5064508;28;20113;-60
2022/09/08 01:12:45;;;;;;;31.02;22.13;;;14.00;99.90;;;;;;5035998;28;20878;-62
2022/09/08 01:15:19;;;;;;;38.17;24.80;;;14.00;99.90;;;;;;5045002;28;20051;-61
2022/09/08 01:17:47;;;;;;;37.92;25.70;;;13.90;99.90;;;;;;5047691;28;22312;-61
2022/09/08 01:20:15;;;;;;;36.78;25.02;;;14.00;99.90;;;;;;5042813;28;20056;-60
2022/09/08 01:23:15;;;;;;;29.75;22.42;;;14.00;99.90;;;;;;5041549;28;20045;-61
2022/09/08 01:26:08;;;;;;;30.08;21.75;;;14.20;99.90;;;;;;5040324;28;20045;-61
2022/09/08 01:28:40;;;;;;;38.85;25.50;;;14.30;99.90;;;;;;5038138;28;20710;-62
2022/09/08 01:31:06;;;;;;;67.35;40.42;;;14.20;99.90;;;;;;5044579;28;20056;-61
2022/09/08 01:33:33;;;;;;;42.78;28.98;;;14.30;99.90;;;;;;5039841;28;20040;-60
2022/09/08 01:35:59;;;;;;;42.42;27.33;;;14.30;99.90;;;;;;5042524;28;20060;-61
2022/09/08 01:38:24;;;;;;;47.75;29.00;;;14.40;99.90;;;;;;5047089;28;20051;-61
2022/09/08 01:40:50;;;;;;;52.30;32.35;;;14.50;99.90;;;;;;5046341;28;20487;-62
2022/09/08 01:43:16;;;;;;;48.78;31.30;;;14.40;99.90;;;;;;5050834;28;20094;-60
2022/09/08 01:45:41;;;;;;;54.75;33.22;;;14.60;99.90;;;;;;5049171;28;20044;-61
2022/09/08 01:48:08;;;;;;;63.08;35.17;;;14.50;99.90;;;;;;5020447;28;20128;-61
2022/09/08 01:50:34;;;;;;;55.50;33.72;;;14.50;99.90;;;;;;5040328;28;20044;-61
2022/09/08 01:52:59;;;;;;;59.33;36.08;;;14.50;99.90;;;;;;5025802;28;20037;-63
2022/09/08 01:55:25;;;;;;;59.78;36.20;;;14.60;99.90;;;;;;5045661;28;20253;-62
2022/09/08 01:57:50;;;;;;;70.13;40.63;;;14.70;99.90;;;;;;5040548;28;20537;-61
2022/09/08 02:00:16;;;;;;;63.20;38.30;;;14.60;99.90;;;;;;5030191;28;20041;-62
2022/09/08 02:02:42;;;;;;;60.22;37.53;;;14.60;99.90;;;;;;5049817;28;20041;-61
2022/09/08 02:05:08;;;;;;;68.03;40.38;;;14.80;99.90;;;;;;5022339;28;20063;-62
2022/09/08 02:07:36;;;;;;;68.28;40.22;;;14.70;99.90;;;;;;5046934;28;20044;-61
2022/09/08 02:10:04;;;;;;;71.28;41.47;;;14.80;99.90;;;;;;5061058;28;20045;-62
2022/09/08 02:12:30;;;;;;;82.18;43.40;;;14.80;99.90;;;;;;5069194;28;20029;-61
2022/09/08 02:14:56;;;;;;;69.38;39.75;;;14.90;99.90;;;;;;5068378;28;20081;-62
2022/09/08 02:17:21;;;;;;;80.00;44.53;;;14.90;99.90;;;;;;5069519;28;20072;-61
2022/09/08 02:19:47;;;;;;;73.80;42.28;;;14.80;99.90;;;;;;5069226;28;20047;-62
2022/09/08 02:22:12;;;;;;;69.00;42.35;;;14.80;99.90;;;;;;5037364;28;20043;-61
2022/09/08 02:24:38;;;;;;;84.07;46.28;;;15.00;99.90;;;;;;5067118;28;20032;-61
2022/09/08 02:27:03;;;;;;;75.88;43.15;;;14.90;99.90;;;;;;5048756;28;20094;-61
2022/09/08 02:29:29;;;;;;;74.57;44.25;;;15.00;99.90;;;;;;5063422;28;20514;-61
2022/09/08 02:31:55;;;;;;;85.00;46.78;;;15.00;99.90;;;;;;5070289;28;20036;-61
2022/09/08 02:34:21;;;;;;;81.82;45.50;;;15.00;99.90;;;;;;5064189;28;20040;-61
2022/09/08 02:36:46;;;;;;;78.55;43.72;;;14.90;99.90;;;;;;5070353;28;20044;-61
2022/09/08 02:39:16;;;;;;;72.03;43.17;;;15.10;99.90;;;;;;5066356;28;20045;-62
2022/09/08 02:41:42;;;;;;;71.80;43.10;;;15.10;99.90;;;;;;5064111;28;20085;-62
2022/09/08 02:44:09;;;;;;;79.63;45.53;;;14.90;99.90;;;;;;5048380;28;20943;-61
2022/09/08 02:46:35;;;;;;;97.10;48.63;;;15.00;99.90;;;;;;5066021;28;20106;-61
2022/09/08 02:49:00;;;;;;;82.38;46.88;;;15.00;99.90;;;;;;5066288;28;20110;-61
2022/09/08 02:51:26;;;;;;;74.30;44.42;;;15.10;99.90;;;;;;5068813;28;20037;-60
2022/09/08 02:53:54;;;;;;;85.50;45.88;;;15.10;99.90;;;;;;5067118;28;20738;-62
2022/09/08 02:56:20;;;;;;;80.85;44.67;;;15.10;99.90;;;;;;5069771;28;20368;-61
2022/09/08 02:58:46;;;;;;;82.82;44.85;;;15.10;99.90;;;;;;5071362;28;20040;-61
2022/09/08 03:01:11;;;;;;;78.32;44.22;;;15.00;99.90;;;;;;5069389;28;20389;-61
2022/09/08 03:03:37;;;;;;;74.88;43.28;;;15.00;99.90;;;;;;5049069;28;20045;-61
2022/09/08 03:06:04;;;;;;;83.07;46.47;;;15.00;99.90;;;;;;5059255;28;20044;-62
2022/09/08 03:08:30;;;;;;;79.47;45.08;;;15.10;99.90;;;;;;5067809;28;20033;-61
2022/09/08 03:10:56;;;;;;;70.20;44.20;;;15.10;99.90;;;;;;5066184;28;21242;-61
2022/09/08 03:13:21;;;;;;;77.50;45.40;;;15.20;99.90;;;;;;5064797;28;20070;-61
2022/09/08 03:15:48;;;;;;;82.88;46.97;;;15.10;99.90;;;;;;5062232;28;20380;-62
2022/09/08 03:18:13;;;;;;;75.05;45.60;;;15.10;99.90;;;;;;5066147;28;20083;-61
2022/09/08 03:20:41;;;;;;;81.25;47.38;;;15.10;99.90;;;;;;5070066;28;20078;-61
2022/09/08 03:23:07;;;;;;;71.18;45.00;;;15.10;99.90;;;;;;5065875;28;20068;-61
2022/09/08 03:25:36;;;;;;;79.72;46.50;;;15.20;99.90;;;;;;5062592;28;20127;-61
2022/09/08 03:28:04;;;;;;;84.80;48.30;;;15.20;99.90;;;;;;5051260;28;20035;-60
2022/09/08 03:30:29;;;;;;;79.15;45.53;;;15.10;99.90;;;;;;5067479;28;20034;-61
2022/09/08 03:32:55;;;;;;;83.88;48.13;;;15.10;99.90;;;;;;5069327;28;20037;-61
2022/09/08 03:35:20;;;;;;;73.78;44.90;;;15.00;99.90;;;;;;5062644;28;20048;-61
2022/09/08 03:37:47;;;;;;;75.38;45.70;;;15.20;99.90;;;;;;5050153;28;20041;-60
2022/09/08 03:40:15;;;;;;;78.78;46.13;;;15.10;99.90;;;;;;5064816;28;20090;-61
2022/09/08 03:42:42;;;;;;;74.10;44.10;;;15.10;99.90;;;;;;5066622;28;20063;-61
2022/09/08 03:45:14;;;;;;;69.82;42.40;;;15.30;99.90;;;;;;5068370;28;20040;-61
2022/09/08 03:47:40;;;;;;;74.63;43.55;;;15.10;99.90;;;;;;5068290;28;20032;-61
2022/09/08 03:50:06;;;;;;;62.88;40.08;;;15.30;99.90;;;;;;5068033;28;20486;-60
2022/09/08 03:52:32;;;;;;;73.07;45.55;;;15.10;99.90;;;;;;5048274;28;20037;-60
2022/09/08 03:54:57;;;;;;;77.90;47.10;;;15.30;99.90;;;;;;5069515;28;20045;-61
2022/09/08 03:57:26;;;;;;;80.38;46.85;;;15.20;99.90;;;;;;5065437;28;20089;-61
2022/09/08 03:59:53;;;;;;;89.50;49.97;;;15.20;99.90;;;;;;5065022;28;20086;-62
2022/09/08 04:02:20;;;;;;;84.60;47.90;;;15.10;99.90;;;;;;5044010;28;20028;-62
2022/09/08 04:04:50;;;;;;;83.38;48.08;;;15.10;99.90;;;;;;5063442;28;20559;-61
2022/09/08 04:07:18;;;;;;;93.43;50.50;;;15.20;99.90;;;;;;5065001;28;20044;-63
2022/09/08 04:09:44;;;;;;;112.15;53.90;;;15.20;99.90;;;;;;5068294;28;20049;-60
2022/09/08 04:12:10;;;;;;;83.90;48.90;;;15.10;99.90;;;;;;5067083;28;20045;-61
2022/09/08 04:14:37;;;;;;;96.28;52.65;;;15.30;99.90;;;;;;5064972;28;20818;-61
2022/09/08 04:17:02;;;;;;;87.13;49.25;;;15.20;99.90;;;;;;5069188;28;20048;-61
2022/09/08 04:19:28;;;;;;;119.07;54.33;;;15.20;99.90;;;;;;5067690;28;20482;-61
2022/09/08 04:21:53;;;;;;;82.25;48.47;;;15.30;99.90;;;;;;5065198;28;20109;-61
2022/09/08 04:24:19;;;;;;;86.95;49.22;;;15.30;99.90;;;;;;5065565;28;20032;-61
2022/09/08 04:27:17;;;;;;;79.60;47.13;;;15.20;99.90;;;;;;5065168;28;20480;-61
2022/09/08 04:30:05;;;;;;;80.13;48.22;;;15.30;99.90;;;;;;5055236;28;20040;-60
2022/09/08 04:32:31;;;;;;;93.15;50.25;;;15.20;99.90;;;;;;5061018;28;20040;-61
2022/09/08 04:34:56;;;;;;;87.68;49.95;;;15.20;99.90;;;;;;5064370;28;20407;-61
2022/09/08 04:37:25;;;;;;;87.93;50.13;;;15.20;99.90;;;;;;5066646;28;20391;-60
2022/09/08 04:39:51;;;;;;;89.70;50.15;;;15.30;99.90;;;;;;5063497;28;20161;-61
2022/09/08 06:06:36;;;;;;;95.15;51.67;;;15.40;99.90;;;;;;5041372;28;20060;-61
2022/09/08 06:09:03;;;;;;;93.40;50.35;;;15.30;99.90;;;;;;5046661;28;20960;-61
2022/09/08 06:11:32;;;;;;;104.88;52.58;;;15.40;99.90;;;;;;5028632;28;20048;-60
2022/09/08 06:13:58;;;;;;;92.53;50.95;;;15.40;99.90;;;;;;5049287;28;20112;-60
2022/09/08 06:16:23;;;;;;;99.80;52.72;;;15.40;99.90;;;;;;5044173;28;20136;-62
2022/09/08 06:18:50;;;;;;;96.93;53.15;;;15.40;99.90;;;;;;5044881;28;20033;-61
2022/09/08 06:21:24;;;;;;;87.95;49.72;;;15.60;99.90;;;;;;5044091;28;20160;-61
2022/09/08 06:23:52;;;;;;;112.13;54.70;;;15.50;99.90;;;;;;5031687;28;20029;-60
2022/09/08 06:26:58;;;;;;;122.80;57.15;;;15.50;99.90;;;;;;5044952;28;20048;-61
2022/09/08 06:29:24;;;;;;;106.03;54.63;;;15.50;99.90;;;;;;5021085;28;20610;-61
2022/09/08 06:32:11;;;;;;;109.65;58.15;;;15.60;99.90;;;;;;5048317;28;20124;-61
2022/09/08 06:34:50;;;;;;;106.68;56.88;;;15.70;99.90;;;;;;5037144;28;20076;-62
2022/09/08 06:37:29;;;;;;;108.60;58.80;;;15.70;99.90;;;;;;5036315;28;20048;-62
2022/09/08 06:40:02;;;;;;;108.57;59.97;;;15.80;99.90;;;;;;5044506;28;20044;-60
2022/09/08 06:42:35;;;;;;;110.50;59.20;;;15.80;99.90;;;;;;5042128;28;20048;-61
2022/09/08 06:45:03;;;;;;;114.07;59.42;;;15.90;99.90;;;;;;5026148;28;20040;-61
2022/09/08 06:47:38;;;;;;;105.53;59.50;;;15.90;99.90;;;;;;5048427;28;20068;-61
2022/09/08 06:50:06;;;;;;;106.82;60.63;;;15.90;99.90;;;;;;5044050;28;20049;-62
2022/09/08 06:52:45;;;;;;;109.03;58.65;;;15.90;99.90;;;;;;5047432;28;20049;-61
2022/09/08 06:55:32;;;;;;;110.65;58.28;;;15.90;99.90;;;;;;5044963;28;20041;-61
2022/09/08 06:58:29;;;;;;;115.93;61.67;;;15.90;99.90;;;;;;5044708;28;20600;-62
2022/09/08 07:01:09;;;;;;;122.55;62.10;;;15.90;99.90;;;;;;5027402;28;20478;-62
2022/09/08 07:04:03;;;;;;;109.32;59.22;;;15.90;99.90;;;;;;5043015;28;20045;-62
2022/09/08 07:06:40;;;;;;;118.70;58.72;;;15.90;99.90;;;;;;5040419;28;20195;-62
2022/09/08 07:09:41;;;;;;;126.85;60.90;;;15.90;99.90;;;;;;5044427;28;20033;-63
2022/09/08 07:12:26;;;;;;;130.77;60.95;;;15.90;99.90;;;;;;5010527;28;20461;-62
2022/09/08 07:15:07;;;;;;;124.00;59.50;;;15.80;99.90;;;;;;5003628;28;20041;-63
2022/09/08 07:17:39;;;;;;;138.40;63.55;;;15.90;99.90;;;;;;5046260;28;20056;-63
2022/09/08 07:20:09;;;;;;;139.93;63.78;;;16.10;99.90;;;;;;5042976;28;20171;-63
2022/09/08 07:22:57;;;;;;;140.57;62.90;;;16.20;99.90;;;;;;5026277;28;20041;-63
2022/09/08 07:25:35;;;;;;;132.02;59.72;;;15.90;99.90;;;;;;5048787;28;22093;-63
2022/09/08 07:28:06;;;;;;;162.73;63.40;;;15.50;99.90;;;;;;5053534;28;20370;-63
2022/09/08 07:30:35;;;;;;;136.93;60.58;;;15.80;99.90;;;;;;5050110;28;20488;-63
2022/09/08 07:33:10;;;;;;;134.00;55.47;;;15.80;99.90;;;;;;5034632;28;20102;-62
2022/09/08 07:35:55;;;;;;;125.45;56.15;;;15.90;99.90;;;;;;5045366;28;20080;-62
2022/09/08 07:38:43;;;;;;;129.50;54.08;;;16.20;99.90;;;;;;5047287;28;20048;-63
2022/09/08 07:41:12;;;;;;;107.03;49.15;;;16.00;99.90;;;;;;5052183;28;20036;-63
2022/09/08 07:43:38;;;;;;;104.95;48.50;;;15.60;99.90;;;;;;5049635;28;20029;-63
2022/09/08 07:46:44;;;;;;;97.47;48.55;;;16.00;99.90;;;;;;5039504;28;20119;-64
2022/09/08 07:49:14;;;;;;;113.30;46.60;;;16.00;99.90;;;;;;5047023;28;20087;-63
2022/09/08 07:52:06;;;;;;;84.00;43.40;;;16.00;99.90;;;;;;5032466;28;20037;-63
2022/09/08 07:54:57;;;;;;;116.35;47.25;;;15.70;99.90;;;;;;5050659;28;20045;-63
2022/09/08 07:57:37;;;;;;;97.65;43.80;;;15.90;99.90;;;;;;5047518;28;20083;-63
2022/09/08 08:00:13;;;;;;;106.40;45.45;;;16.20;99.90;;;;;;5033356;28;20131;-63
2022/09/08 08:03:08;;;;;;;209.90;57.53;;;16.40;99.90;;;;;;5028470;28;20060;-64
2022/09/08 08:05:37;;;;;;;120.47;52.22;;;15.80;99.90;;;;;;5041158;28;20048;-63
2022/09/08 08:08:40;;;;;;;112.93;50.95;;;16.20;99.90;;;;;;5068344;28;20037;-64
2022/09/08 08:11:16;;;;;;;122.97;54.15;;;16.40;99.90;;;;;;5058083;28;20036;-63
2022/09/08 08:14:07;;;;;;;113.07;54.03;;;16.60;99.90;;;;;;5070086;28;20040;-62
2022/09/08 08:16:56;;;;;;;106.75;51.95;;;16.10;99.90;;;;;;5065141;28;20025;-63
2022/09/08 08:19:30;;;;;;;119.90;54.70;;;16.00;99.90;;;;;;5065998;28;20063;-62
2022/09/08 08:22:06;;;;;;;133.88;57.90;;;16.00;99.90;;;;;;5067276;28;20040;-63
2022/09/08 08:24:39;;;;;;;188.20;62.92;;;16.30;99.90;;;;;;5043994;28;20041;-63
2022/09/08 08:27:19;;;;;;;201.18;64.35;;;16.60;99.90;;;;;;5064637;28;20052;-63
2022/09/08 08:30:02;;;;;;;141.25;58.22;;;16.30;99.90;;;;;;5042245;28;20095;-63
2022/09/08 08:32:36;;;;;;;140.52;59.35;;;16.30;99.90;;;;;;5045772;28;20039;-62
2022/09/08 08:35:36;;;;;;;130.38;56.88;;;16.20;99.90;;;;;;5069264;28;20414;-64
2022/09/08 08:38:02;;;;;;;133.65;55.70;;;16.70;99.90;;;;;;5036931;28;20114;-63
2022/09/08 08:40:56;;;;;;;158.52;55.83;;;16.00;99.90;;;;;;5050548;28;20032;-63
2022/09/08 08:43:33;;;;;;;136.05;53.88;;;16.80;99.90;;;;;;5062161;28;20040;-63
2022/09/08 08:46:35;;;;;;;148.30;53.25;;;16.70;99.90;;;;;;5048938;28;20167;-63
2022/09/08 08:49:19;;;;;;;112.95;49.33;;;16.30;99.90;;;;;;5071437;28;20039;-62
2022/09/08 08:51:53;;;;;;;104.20;46.58;;;16.80;99.90;;;;;;5056562;28;20373;-62
2022/09/08 08:54:48;;;;;;;133.25;51.13;;;16.40;99.90;;;;;;5039278;28;20476;-63
2022/09/08 08:57:35;;;;;;;126.97;52.35;;;16.40;99.90;;;;;;5062175;28;20438;-63
2022/09/08 09:00:12;;;;;;;110.75;49.25;;;16.20;99.90;;;;;;5069837;28;20068;-63
2022/09/08 09:03:02;;;;;;;108.22;49.75;;;16.80;99.90;;;;;;5034485;28;20551;-63
2022/09/08 09:05:51;;;;;;;104.53;49.55;;;16.20;99.90;;;;;;5051128;28;20103;-63
2022/09/08 09:08:50;;;;;;;101.00;46.42;;;16.20;99.90;;;;;;5064121;28;20047;-62
2022/09/08 09:11:40;;;;;;;114.55;48.60;;;16.70;99.90;;;;;;5069122;28;20633;-63
2022/09/08 09:14:36;;;;;;;144.45;50.25;;;16.50;99.90;;;;;;5068896;28;20040;-63
2022/09/08 09:17:04;;;;;;;91.93;44.90;;;16.20;99.90;;;;;;5069885;28;20040;-63
2022/09/08 09:19:48;;;;;;;152.15;48.92;;;17.00;99.90;;;;;;5064752;28;20043;-64
2022/09/08 09:22:22;;;;;;;82.10;40.17;;;16.20;99.90;;;;;;5053711;28;20059;-63
2022/09/08 09:25:13;;;;;;;73.50;37.45;;;16.80;99.90;;;;;;5068266;28;20490;-63
2022/09/08 09:27:52;;;;;;;98.28;41.78;;;17.00;99.90;;;;;;5059630;28;20730;-64
2022/09/08 09:30:24;;;;;;;73.75;36.13;;;16.90;99.90;;;;;;5066013;28;20037;-64
2022/09/08 09:33:23;;;;;;;79.38;36.08;;;16.70;99.90;;;;;;5070691;28;20524;-64
2022/09/08 09:36:04;;;;;;;81.30;33.95;;;16.90;99.90;;;;;;5066839;28;20051;-63
2022/09/08 09:38:49;;;;;;;65.13;32.67;;;16.40;99.90;;;;;;5066352;28;20044;-63
2022/09/08 09:41:38;;;;;;;50.92;28.33;;;17.10;99.90;;;;;;5062911;28;20059;-63
2022/09/08 09:44:48;;;;;;;54.83;28.92;;;16.70;99.90;;;;;;5069237;28;20072;-63
2022/09/08 09:47:42;;;;;;;55.72;27.00;;;17.00;99.90;;;;;;4991160;28;20066;-63
2022/09/08 09:50:49;;;;;;;52.97;24.08;;;16.40;99.90;;;;;;5053369;28;20039;-63
2022/09/08 09:54:00;;;;;;;43.17;23.77;;;17.30;99.90;;;;;;5059938;28;20102;-62
2022/09/08 09:56:41;;;;;;;;;;;16.50;99.90;;;;;;5066575;28;20032;-62
2022/09/08 09:59:15;;;;;;;41.88;20.80;;;16.50;99.90;;;;;;5073393;28;20276;-62
2022/09/08 10:02:26;;;;;;;40.72;20.40;;;16.50;99.90;;;;;;5071161;28;20044;-62
2022/09/08 10:05:34;;;;;;;35.60;19.98;;;16.50;99.90;;;;;;5067886;28;20083;-63
2022/09/08 10:08:24;;;;;;;29.50;17.67;;;17.20;99.90;;;;;;5073721;28;20047;-63
2022/09/08 10:11:04;;;;;;;38.90;18.17;;;17.00;99.90;;;;;;5069102;28;20479;-63
2022/09/08 10:13:42;;;;;;;35.80;15.90;;;16.40;99.90;;;;;;5074244;28;20115;-62
2022/09/08 10:16:35;;;;;;;27.17;13.55;;;16.40;99.90;;;;;;5073416;28;20541;-63
2022/09/08 10:19:33;;;;;;;17.58;11.85;;;16.70;99.90;;;;;;5052883;28;20084;-63
2022/09/08 10:22:14;;;;;;;31.02;14.15;;;16.90;99.90;;;;;;5070021;28;20133;-62
2022/09/08 10:25:01;;;;;;;22.73;12.15;;;16.90;99.90;;;;;;5043299;28;20044;-62
2022/09/08 10:27:51;;;;;;;16.95;10.93;;;17.10;99.90;;;;;;5072175;28;20036;-63
2022/09/08 10:30:51;;;;;;;17.20;10.20;;;16.60;99.90;;;;;;5071731;28;20052;-63
2022/09/08 10:33:35;;;;;;;;;;;16.80;99.90;;;;;;5067653;28;20593;-63
2022/09/08 10:36:06;;;;;;;18.23;10.25;;;16.70;99.90;;;;;;5071366;28;19916;-64
2022/09/08 10:38:45;;;;;;;;;;;16.70;99.90;;;;;;5072438;28;20387;-62
2022/09/08 10:41:17;;;;;;;15.80;10.13;;;16.60;99.90;;;;;;5062637;28;20407;-63
2022/09/08 10:44:10;;;;;;;16.83;10.10;;;16.60;99.90;;;;;;5072371;28;20036;-62
2022/09/08 10:46:44;;;;;;;28.88;11.98;;;16.90;99.90;;;;;;5060221;28;20365;-63
2022/09/08 10:49:29;;;;;;;16.08;10.80;;;16.10;99.90;;;;;;5064359;28;20044;-62
2022/09/08 10:52:25;;;;;;;15.75;9.90;;;16.80;99.90;;;;;;5062278;28;20041;-62
2022/09/08 10:55:27;;;;;;;12.82;9.32;;;16.10;99.90;;;;;;5063462;28;20043;-63
2022/09/08 10:58:11;;;;;;;13.07;9.30;;;16.10;99.90;;;;;;5062572;28;20107;-63
2022/09/08 11:01:20;;;;;;;13.13;7.07;;;16.00;99.90;;;;;;5071759;28;20032;-63
2022/09/08 11:04:08;;;;;;;7.70;5.10;;;16.50;99.90;;;;;;5060284;28;20047;-63
2022/09/08 11:06:58;;;;;;;9.60;6.00;;;16.30;99.90;;;;;;5051043;28;20091;-63
2022/09/08 11:09:39;;;;;;;8.68;4.95;;;16.40;99.90;;;;;;5062164;28;20059;-64
2022/09/08 11:12:26;;;;;;;6.70;4.22;;;16.30;99.90;;;;;;5057573;28;20495;-64
2022/09/08 11:15:22;;;;;;;10.00;4.20;;;16.40;99.90;;;;;;5035316;28;20063;-63
2022/09/08 11:17:50;;;;;;;8.82;4.25;;;16.30;99.90;;;;;;5053916;28;20045;-64
2022/09/08 11:20:36;;;;;;;8.35;3.90;;;16.50;99.90;;;;;;5046584;28;20037;-64
2022/09/08 11:23:36;;;;;;;16.52;4.35;;;16.20;99.90;;;;;;5065613;28;20075;-64
2022/09/08 11:26:33;;;;;;;5.90;3.28;;;16.00;99.90;;;;;;5071787;28;20044;-64
2022/09/08 11:29:06;;;;;;;5.80;3.30;;;16.10;99.90;;;;;;5071126;28;20538;-64
2022/09/08 11:31:37;;;;;;;6.68;3.00;;;16.60;99.90;;;;;;5073150;28;20060;-64
2022/09/08 11:34:12;;;;;;;4.32;2.95;;;16.30;99.90;;;;;;5071764;28;20090;-64
2022/09/08 11:37:04;;;;;;;5.38;3.30;;;16.40;99.90;;;;;;5070248;28;20460;-65
2022/09/08 11:39:52;;;;;;;8.82;3.88;;;16.00;99.90;;;;;;5042622;28;20094;-65
2022/09/08 11:42:30;;;;;;;6.05;2.88;;;16.10;99.90;;;;;;5052656;28;20480;-64
2022/09/08 11:45:09;;;;;;;6.13;3.78;;;16.10;99.90;;;;;;5071944;28;20040;-63
2022/09/08 11:48:06;;;;;;;8.85;3.30;;;16.50;99.90;;;;;;5070413;28;20040;-64
2022/09/08 11:50:56;;;;;;;5.10;3.05;;;16.00;99.90;;;;;;5052151;28;20041;-65
2022/09/08 11:53:35;;;;;;;4.82;3.17;;;16.70;99.90;;;;;;5053101;28;20045;-64
2022/09/08 11:56:28;;;;;;;7.75;3.28;;;16.30;99.90;;;;;;5066458;28;20051;-64
2022/09/08 11:59:21;;;;;;;5.60;2.65;;;16.30;99.90;;;;;;5072211;28;20369;-64
2022/09/08 12:02:08;;;;;;;6.03;2.88;;;16.30;99.90;;;;;;5052249;28;20045;-64
2022/09/08 12:04:58;;;;;;;8.80;3.75;;;16.60;99.90;;;;;;5067155;28;20056;-65
2022/09/08 12:07:46;;;;;;;6.35;3.78;;;16.60;99.90;;;;;;5069684;28;20048;-64
2022/09/08 12:10:50;;;;;;;7.50;3.35;;;16.10;99.90;;;;;;5052843;28;20450;-65
2022/09/08 12:13:34;;;;;;;17.70;3.58;;;16.70;99.90;;;;;;5070564;28;20537;-64
2022/09/08 12:16:20;;;;;;;6.68;3.15;;;16.40;99.90;;;;;;5067838;28;20051;-65
2022/09/08 12:19:00;;;;;;;6.28;3.10;;;16.60;99.90;;;;;;5063126;28;20044;-64
2022/09/08 12:21:29;;;;;;;7.13;3.58;;;16.50;99.90;;;;;;5065438;28;20754;-64
2022/09/08 12:24:21;;;;;;;7.55;3.40;;;16.60;99.90;;;;;;5070179;28;20052;-64
2022/09/08 12:27:13;;;;;;;6.38;2.92;;;16.50;99.90;;;;;;5052729;28;20440;-64
2022/09/08 12:30:07;;;;;;;3.72;2.92;;;16.90;99.90;;;;;;5051917;28;20458;-64
2022/09/08 12:32:51;;;;;;;9.57;2.85;;;16.30;99.90;;;;;;5068994;28;20032;-64
2022/09/08 12:35:48;;;;;;;6.38;3.58;;;16.30;99.90;;;;;;5049400;28;20123;-64
2022/09/08 12:38:47;;;;;;;6.20;3.05;;;16.20;99.90;;;;;;5071869;28;20044;-63
2022/09/08 12:42:02;;;;;;;7.57;3.47;;;16.20;99.90;;;;;;5062662;28;20083;-63
2022/09/08 12:45:03;;;;;;;4.88;2.97;;;16.10;99.90;;;;;;4987306;28;20137;-63
2022/09/08 12:48:00;;;;;;;4.07;2.75;;;16.30;99.90;;;;;;5054313;28;20427;-63
2022/09/08 12:50:33;;;;;;;5.15;3.03;;;16.70;99.90;;;;;;5051791;28;20387;-62
2022/09/08 12:53:16;;;;;;;5.07;2.80;;;16.10;99.90;;;;;;5069811;28;20043;-63
2022/09/08 12:55:51;;;;;;;5.90;3.03;;;16.70;99.90;;;;;;5065674;28;20068;-64
2022/09/08 12:58:26;;;;;;;5.80;3.25;;;16.60;99.90;;;;;;5069764;28;20059;-63
2022/09/08 13:01:12;;;;;;;5.88;3.38;;;16.50;99.90;;;;;;5070142;28;20032;-62
2022/09/08 13:03:41;;;;;;;6.95;3.30;;;16.40;99.90;;;;;;5067086;28;20112;-63
2022/09/08 13:06:36;;;;;;;4.53;3.35;;;16.50;99.90;;;;;;5064479;28;20053;-63
2022/09/08 13:09:07;;;;;;;4.80;3.35;;;16.70;99.90;;;;;;5052594;28;20041;-63
2022/09/08 13:12:01;;;;;;;7.07;4.13;;;16.20;99.90;;;;;;5065065;28;20025;-63
2022/09/08 13:14:39;;;;;;;13.10;6.25;;;16.80;99.90;;;;;;5064002;28;20393;-62
2022/09/08 13:17:24;;;;;;;18.00;12.23;;;16.90;99.90;;;;;;5049878;28;20091;-63
2022/09/08 13:20:02;;;;;;;16.35;11.10;;;17.10;99.90;;;;;;5064671;28;20139;-63
2022/09/08 13:22:44;;;;;;;18.15;13.23;;;16.50;99.90;;;;;;5070832;28;20171;-63
2022/09/08 13:25:29;;;;;;;24.98;18.20;;;16.80;99.90;;;;;;5039744;28;20120;-62
2022/09/08 13:28:13;;;;;;;13.85;11.00;;;17.30;99.90;;;;;;5058899;28;20055;-63
2022/09/08 13:31:19;;;;;;;9.93;8.07;;;16.90;99.90;;;;;;5069910;28;20086;-63
2022/09/08 13:33:57;;;;;;;8.38;6.40;;;17.10;99.90;;;;;;5075853;28;20053;-63
2022/09/08 13:36:37;;;;;;;10.40;7.00;;;16.90;99.90;;;;;;5057885;28;20048;-62
2022/09/08 13:39:20;;;;;;;14.68;7.65;;;17.10;99.90;;;;;;5077508;28;20448;-63
2022/09/08 13:42:04;;;;;;;15.05;8.32;;;17.40;99.90;;;;;;5078079;28;20040;-63
2022/09/08 13:45:07;;;;;;;10.50;7.60;;;16.80;99.90;;;;;;5059370;28;20078;-63
2022/09/08 13:48:01;;;;;;;9.77;7.50;;;17.60;99.90;;;;;;5075601;28;20036;-62
2022/09/08 13:50:56;;;;;;;12.85;8.23;;;17.20;99.90;;;;;;5075131;28;20036;-63
2022/09/08 13:53:40;;;;;;;13.45;8.80;;;17.30;99.90;;;;;;5071074;28;20430;-62
2022/09/08 13:56:18;;;;;;;14.88;8.82;;;17.50;99.90;;;;;;5053001;28;20043;-63
2022/09/08 13:58:45;;;;;;;14.40;9.57;;;17.60;99.90;;;;;;5075443;28;20036;-62
2022/09/08 14:01:20;;;;;;;17.52;10.10;;;17.20;99.90;;;;;;5073844;28;20121;-63
2022/09/08 14:04:13;;;;;;;17.92;11.02;;;17.20;99.90;;;;;;5077126;28;20051;-63
2022/09/08 14:06:47;;;;;;;15.82;10.70;;;17.40;99.90;;;;;;5076113;28;20484;-62
2022/09/08 14:09:21;;;;;;;16.20;9.60;;;17.50;99.90;;;;;;5078299;28;20037;-63
2022/09/08 14:11:53;;;;;;;15.50;10.50;;;17.40;99.90;;;;;;5077125;28;20368;-62
2022/09/08 14:14:43;;;;;;;18.42;10.70;;;17.60;99.90;;;;;;5075959;28;20051;-63
2022/09/08 14:17:37;;;;;;;15.55;10.57;;;17.70;99.90;;;;;;5056873;28;20044;-63
2022/09/08 14:20:22;;;;;;;18.83;11.55;;;17.40;99.90;;;;;;5075715;28;20036;-62
2022/09/08 14:23:02;;;;;;;22.42;16.77;;;17.70;99.90;;;;;;5075596;28;20068;-62
2022/09/08 14:25:33;;;;;;;18.40;12.00;;;17.60;99.90;;;;;;5075228;28;20050;-63
2022/09/08 14:28:17;;;;;;;17.52;11.65;;;17.50;99.90;;;;;;5064647;28;20083;-64
2022/09/08 14:31:05;;;;;;;16.90;10.60;;;17.40;99.90;;;;;;5074458;28;20491;-64
2022/09/08 14:33:31;;;;;;;15.82;10.45;;;17.80;99.90;;;;;;5075609;28;20032;-62
2022/09/08 14:36:10;;;;;;;16.20;11.02;;;17.40;99.90;;;;;;5055935;28;20051;-63
2022/09/08 14:38:56;;;;;;;17.55;11.35;;;17.60;99.90;;;;;;5074111;28;20049;-62
2022/09/08 14:41:22;;;;;;;20.17;13.18;;;17.50;99.90;;;;;;5064864;28;20642;-62
2022/09/08 14:43:47;;;;;;;20.05;12.35;;;17.40;99.90;;;;;;5075112;28;20102;-62
2022/09/08 14:46:28;;;;;;;18.83;11.93;;;17.70;99.90;;;;;;5053254;28;20131;-63
2022/09/08 14:49:15;;;;;;;19.80;12.52;;;17.40;99.90;;;;;;5068011;28;20057;-63
2022/09/08 14:51:54;;;;;;;20.38;11.60;;;17.70;99.90;;;;;;5042082;28;20044;-63